createdAt,value
2018-05-06T00:00:31.998Z,12.67
2018-05-06T00:01:31.910Z,12.67
2018-05-06T00:02:31.836Z,12.56
2018-05-06T00:03:31.762Z,12.60
2018-05-06T00:04:31.674Z,12.67
2018-05-06T00:05:31.598Z,12.54
2018-05-06T00:06:31.512Z,12.59
2018-05-06T00:07:31.458Z,12.60
2018-05-06T00:08:31.353Z,12.56
2018-05-06T00:09:31.276Z,12.57
2018-05-06T00:10:31.187Z,12.57
2018-05-06T00:11:31.110Z,12.59
2018-05-06T00:12:31.036Z,12.60
2018-05-06T00:13:30.949Z,12.57
2018-05-06T00:14:30.884Z,12.59
2018-05-06T00:15:30.803Z,12.64
2018-05-06T00:16:30.714Z,12.57
2018-05-06T00:17:30.651Z,12.60
2018-05-06T00:18:30.552Z,12.45
2018-05-06T00:19:30.483Z,12.60
2018-05-06T00:20:30.401Z,12.53
2018-05-06T00:21:30.314Z,12.56
2018-05-06T00:22:30.237Z,12.57
2018-05-06T00:23:30.151Z,12.57
2018-05-06T00:24:30.076Z,12.56
2018-05-06T00:25:30.007Z,12.59
2018-05-06T00:26:29.914Z,12.56
2018-05-06T00:27:29.841Z,12.59
2018-05-06T00:28:29.753Z,12.46
2018-05-06T00:29:29.682Z,12.50
2018-05-06T00:30:29.601Z,12.54
2018-05-06T00:31:29.514Z,12.42
2018-05-06T00:32:29.438Z,12.38
2018-05-06T00:33:29.353Z,12.42
2018-05-06T00:34:29.277Z,12.39
2018-05-06T00:35:29.202Z,12.39
2018-05-06T00:36:29.113Z,12.41
2018-05-06T00:37:29.043Z,12.42
2018-05-06T00:38:28.955Z,12.42
2018-05-06T00:39:28.879Z,12.38
2018-05-06T00:40:28.804Z,12.42
2018-05-06T00:41:28.716Z,12.42
2018-05-06T00:42:28.639Z,12.39
2018-05-06T00:43:28.553Z,12.34
2018-05-06T00:44:28.478Z,12.38
2018-05-06T00:45:28.403Z,12.32
2018-05-06T00:46:28.326Z,12.21
2018-05-06T00:47:28.246Z,12.29
2018-05-06T00:48:28.155Z,12.23
2018-05-06T00:49:28.083Z,12.38
2018-05-06T00:50:28.006Z,12.32
2018-05-06T00:51:27.930Z,12.16
2018-05-06T00:52:27.842Z,12.23
2018-05-06T00:53:27.759Z,12.19
2018-05-06T00:54:27.679Z,12.16
2018-05-06T00:55:27.604Z,12.14
2018-05-06T00:56:27.531Z,12.14
2018-05-06T00:57:27.449Z,12.10
2018-05-06T00:58:27.360Z,12.12
2018-05-06T00:59:27.282Z,12.12
2018-05-06T01:00:27.210Z,12.12
2018-05-06T01:01:27.133Z,12.10
2018-05-06T01:02:27.041Z,12.10
2018-05-06T01:03:26.956Z,12.12
2018-05-06T01:04:26.880Z,12.10
2018-05-06T01:05:26.804Z,12.14
2018-05-06T01:06:26.717Z,12.13
2018-05-06T01:07:26.642Z,12.05
2018-05-06T01:08:26.555Z,11.99
2018-05-06T01:09:26.482Z,11.99
2018-05-06T01:10:26.408Z,11.95
2018-05-06T01:11:26.320Z,11.99
2018-05-06T01:12:26.257Z,11.94
2018-05-06T01:13:26.169Z,11.90
2018-05-06T01:14:26.081Z,11.90
2018-05-06T01:15:26.006Z,11.95
2018-05-06T01:16:25.919Z,11.85
2018-05-06T01:17:25.856Z,11.82
2018-05-06T01:18:25.760Z,11.85
2018-05-06T01:19:25.685Z,11.79
2018-05-06T01:20:25.596Z,11.76
2018-05-06T01:21:25.521Z,11.80
2018-05-06T01:22:25.447Z,11.76
2018-05-06T01:23:25.359Z,11.70
2018-05-06T01:24:25.284Z,11.70
2018-05-06T01:25:25.196Z,11.72
2018-05-06T01:26:25.119Z,11.64
2018-05-06T01:27:25.045Z,11.72
2018-05-06T01:28:24.960Z,11.72
2018-05-06T01:29:24.883Z,11.65
2018-05-06T01:30:24.796Z,11.67
2018-05-06T01:31:24.722Z,11.64
2018-05-06T01:32:24.645Z,11.65
2018-05-06T01:33:24.561Z,11.60
2018-05-06T01:34:24.483Z,11.55
2018-05-06T01:35:24.408Z,11.62
2018-05-06T01:36:24.320Z,11.60
2018-05-06T01:37:24.235Z,11.65
2018-05-06T01:38:24.237Z,11.55
2018-05-06T01:39:24.074Z,11.57
2018-05-06T01:40:23.998Z,11.55
2018-05-06T01:41:23.922Z,11.52
2018-05-06T01:42:23.835Z,11.52
2018-05-06T01:43:23.759Z,11.60
2018-05-06T01:44:23.672Z,11.52
2018-05-06T01:45:23.597Z,11.46
2018-05-06T01:46:23.526Z,11.46
2018-05-06T01:47:23.437Z,11.47
2018-05-06T01:48:23.362Z,11.44
2018-05-06T01:49:23.274Z,11.46
2018-05-06T01:50:23.197Z,11.43
2018-05-06T01:51:23.110Z,11.37
2018-05-06T01:52:23.035Z,11.40
2018-05-06T01:53:22.948Z,11.36
2018-05-06T01:54:22.872Z,11.42
2018-05-06T01:55:22.797Z,11.32
2018-05-06T01:56:22.710Z,11.35
2018-05-06T01:57:22.637Z,11.35
2018-05-06T01:58:22.550Z,11.24
2018-05-06T01:59:22.477Z,11.21
2018-05-06T02:00:22.400Z,11.18
2018-05-06T02:01:22.314Z,11.22
2018-05-06T02:02:22.238Z,11.14
2018-05-06T02:03:22.148Z,11.19
2018-05-06T02:04:22.074Z,11.21
2018-05-06T02:05:21.998Z,11.15
2018-05-06T02:06:21.913Z,11.10
2018-05-06T02:07:21.839Z,11.02
2018-05-06T02:08:21.751Z,11.06
2018-05-06T02:09:21.676Z,11.00
2018-05-06T02:10:21.594Z,10.97
2018-05-06T02:11:21.514Z,11.00
2018-05-06T02:12:21.426Z,11.00
2018-05-06T02:13:21.353Z,10.89
2018-05-06T02:14:21.263Z,11.00
2018-05-06T02:15:21.187Z,10.85
2018-05-06T02:16:21.102Z,10.89
2018-05-06T02:17:21.030Z,10.97
2018-05-06T02:18:20.954Z,10.91
2018-05-06T02:19:20.865Z,10.91
2018-05-06T02:20:20.791Z,10.94
2018-05-06T02:21:20.703Z,10.91
2018-05-06T02:22:20.626Z,10.94
2018-05-06T02:23:20.551Z,10.88
2018-05-06T02:24:20.465Z,10.82
2018-05-06T02:25:20.389Z,10.84
2018-05-06T02:26:20.301Z,10.92
2018-05-06T02:27:20.226Z,10.86
2018-05-06T02:28:20.142Z,10.88
2018-05-06T02:29:20.066Z,10.86
2018-05-06T02:30:19.990Z,10.88
2018-05-06T02:31:19.916Z,10.92
2018-05-06T02:32:19.832Z,10.88
2018-05-06T02:33:19.742Z,10.88
2018-05-06T02:34:19.678Z,11.03
2018-05-06T02:35:19.578Z,11.00
2018-05-06T02:36:19.515Z,11.00
2018-05-06T02:37:19.415Z,11.17
2018-05-06T02:38:19.344Z,11.04
2018-05-06T02:39:19.255Z,11.02
2018-05-06T02:40:19.180Z,11.15
2018-05-06T02:41:19.093Z,11.06
2018-05-06T02:42:19.018Z,11.10
2018-05-06T02:43:18.943Z,11.00
2018-05-06T02:44:18.866Z,11.04
2018-05-06T02:45:18.780Z,10.97
2018-05-06T02:46:18.696Z,11.00
2018-05-06T02:47:18.618Z,10.97
2018-05-06T02:48:18.528Z,11.02
2018-05-06T02:49:18.454Z,11.02
2018-05-06T02:50:18.371Z,10.94
2018-05-06T02:51:18.294Z,10.97
2018-05-06T02:52:18.208Z,10.88
2018-05-06T02:53:18.132Z,11.00
2018-05-06T02:54:18.055Z,11.03
2018-05-06T02:55:17.968Z,11.00
2018-05-06T02:56:17.894Z,11.04
2018-05-06T02:57:17.805Z,10.94
2018-05-06T02:58:17.733Z,11.04
2018-05-06T02:59:17.655Z,10.89
2018-05-06T03:00:17.580Z,10.89
2018-05-06T03:01:17.493Z,10.85
2018-05-06T03:02:17.407Z,10.82
2018-05-06T03:03:17.332Z,10.85
2018-05-06T03:04:17.246Z,10.85
2018-05-06T03:05:17.174Z,10.78
2018-05-06T03:06:17.080Z,10.78
2018-05-06T03:07:17.006Z,10.73
2018-05-06T03:08:16.918Z,10.79
2018-05-06T03:09:16.845Z,10.74
2018-05-06T03:10:16.773Z,10.78
2018-05-06T03:11:16.683Z,10.71
2018-05-06T03:12:16.601Z,10.71
2018-05-06T03:13:16.522Z,10.78
2018-05-06T03:14:16.437Z,10.78
2018-05-06T03:15:16.363Z,10.78
2018-05-06T03:16:16.284Z,10.73
2018-05-06T03:17:16.196Z,10.76
2018-05-06T03:18:16.121Z,10.81
2018-05-06T03:19:16.033Z,10.79
2018-05-06T03:20:15.961Z,10.74
2018-05-06T03:21:15.870Z,10.78
2018-05-06T03:22:15.799Z,10.76
2018-05-06T03:23:15.713Z,10.71
2018-05-06T03:24:15.635Z,10.73
2018-05-06T03:25:15.561Z,10.70
2018-05-06T03:26:15.482Z,10.61
2018-05-06T03:27:15.396Z,10.71
2018-05-06T03:28:15.307Z,10.73
2018-05-06T03:29:15.233Z,10.63
2018-05-06T03:30:15.148Z,10.66
2018-05-06T03:31:15.074Z,10.73
2018-05-06T03:32:14.983Z,10.71
2018-05-06T03:33:14.909Z,10.66
2018-05-06T03:34:14.825Z,10.60
2018-05-06T03:35:14.751Z,10.68
2018-05-06T03:36:14.661Z,10.64
2018-05-06T03:37:14.587Z,10.70
2018-05-06T03:38:14.509Z,10.68
2018-05-06T03:39:14.423Z,10.76
2018-05-06T03:40:14.348Z,10.74
2018-05-06T03:41:14.259Z,10.78
2018-05-06T03:42:14.188Z,10.66
2018-05-06T03:43:14.101Z,10.66
2018-05-06T03:44:14.026Z,10.71
2018-05-06T03:45:13.937Z,10.73
2018-05-06T03:46:13.861Z,10.68
2018-05-06T03:47:13.774Z,10.66
2018-05-06T03:48:13.698Z,10.67
2018-05-06T03:49:13.612Z,10.71
2018-05-06T03:50:13.538Z,10.76
2018-05-06T03:51:13.476Z,10.67
2018-05-06T03:52:13.376Z,10.66
2018-05-06T03:53:13.303Z,10.78
2018-05-06T03:54:13.211Z,10.74
2018-05-06T03:55:13.136Z,10.73
2018-05-06T03:56:13.050Z,10.73
2018-05-06T03:57:12.975Z,10.66
2018-05-06T03:58:12.891Z,10.78
2018-05-06T03:59:12.813Z,10.68
2018-05-06T04:00:12.729Z,10.76
2018-05-06T04:01:12.652Z,10.73
2018-05-06T04:02:12.564Z,10.64
2018-05-06T04:03:12.489Z,10.66
2018-05-06T04:04:12.406Z,10.71
2018-05-06T04:05:12.327Z,10.67
2018-05-06T04:06:12.251Z,10.64
2018-05-06T04:07:12.162Z,10.70
2018-05-06T04:08:12.087Z,10.66
2018-05-06T04:09:12.000Z,10.66
2018-05-06T04:10:11.928Z,10.66
2018-05-06T04:11:11.839Z,10.64
2018-05-06T04:12:11.765Z,10.63
2018-05-06T04:13:11.677Z,10.66
2018-05-06T04:14:11.602Z,10.66
2018-05-06T04:15:11.514Z,10.70
2018-05-06T04:16:11.438Z,10.74
2018-05-06T04:17:11.352Z,10.71
2018-05-06T04:18:11.277Z,10.81
2018-05-06T04:19:11.202Z,10.74
2018-05-06T04:20:11.113Z,10.79
2018-05-06T04:21:11.064Z,10.88
2018-05-06T04:22:10.956Z,10.94
2018-05-06T04:23:10.878Z,10.97
2018-05-06T04:24:10.792Z,11.03
2018-05-06T04:25:10.722Z,11.17
2018-05-06T04:26:10.627Z,11.15
2018-05-06T04:27:10.553Z,11.15
2018-05-06T04:28:10.464Z,11.19
2018-05-06T04:29:10.389Z,11.32
2018-05-06T04:30:10.317Z,11.44
2018-05-06T04:31:10.231Z,11.46
2018-05-06T04:32:10.155Z,11.42
2018-05-06T04:33:10.067Z,11.44
2018-05-06T04:34:09.992Z,11.46
2018-05-06T04:35:09.906Z,11.57
2018-05-06T04:36:09.835Z,11.55
2018-05-06T04:37:09.743Z,11.57
2018-05-06T04:38:09.671Z,11.67
2018-05-06T04:39:09.579Z,11.76
2018-05-06T04:40:09.504Z,11.76
2018-05-06T04:41:09.418Z,11.80
2018-05-06T04:42:09.344Z,11.80
2018-05-06T04:43:09.268Z,11.90
2018-05-06T04:44:09.236Z,11.82
2018-05-06T04:45:09.107Z,11.86
2018-05-06T04:46:09.017Z,11.96
2018-05-06T04:47:08.942Z,11.99
2018-05-06T04:48:08.855Z,11.95
2018-05-06T04:49:08.780Z,12.04
2018-05-06T04:50:08.707Z,11.99
2018-05-06T04:51:08.621Z,12.13
2018-05-06T04:52:08.545Z,12.20
2018-05-06T04:53:08.460Z,12.35
2018-05-06T04:54:08.381Z,12.21
2018-05-06T04:55:08.293Z,12.35
2018-05-06T04:56:08.218Z,12.32
2018-05-06T04:57:08.156Z,12.53
2018-05-06T04:58:08.058Z,12.52
2018-05-06T04:59:07.984Z,12.49
2018-05-06T05:00:07.895Z,12.56
2018-05-06T05:01:07.821Z,12.41
2018-05-06T05:02:07.745Z,12.57
2018-05-06T05:03:07.656Z,12.59
2018-05-06T05:04:07.583Z,12.49
2018-05-06T05:05:07.494Z,12.59
2018-05-06T05:06:07.420Z,12.56
2018-05-06T05:07:07.344Z,12.57
2018-05-06T05:08:07.257Z,12.57
2018-05-06T05:09:07.184Z,12.49
2018-05-06T05:10:07.114Z,12.39
2018-05-06T05:11:07.022Z,12.42
2018-05-06T05:12:06.940Z,12.45
2018-05-06T05:13:06.860Z,12.60
2018-05-06T05:14:06.783Z,12.70
2018-05-06T05:15:06.695Z,12.56
2018-05-06T05:16:06.620Z,12.49
2018-05-06T05:17:06.546Z,12.57
2018-05-06T05:18:06.463Z,12.59
2018-05-06T05:19:06.385Z,12.70
2018-05-06T05:20:06.298Z,12.71
2018-05-06T05:21:06.235Z,12.75
2018-05-06T05:22:06.151Z,12.77
2018-05-06T05:23:06.061Z,12.67
2018-05-06T05:24:05.985Z,12.60
2018-05-06T05:25:05.898Z,12.68
2018-05-06T05:26:05.824Z,12.70
2018-05-06T05:27:05.747Z,12.79
2018-05-06T05:28:05.659Z,12.79
2018-05-06T05:29:05.585Z,12.86
2018-05-06T05:30:05.499Z,12.87
2018-05-06T05:31:05.423Z,12.90
2018-05-06T05:32:05.348Z,12.90
2018-05-06T05:33:05.263Z,12.95
2018-05-06T05:34:05.185Z,13.01
2018-05-06T05:35:05.099Z,12.93
2018-05-06T05:36:05.028Z,12.90
2018-05-06T05:37:04.947Z,12.95
2018-05-06T05:38:04.860Z,13.00
2018-05-06T05:39:04.785Z,12.97
2018-05-06T05:40:04.699Z,13.03
2018-05-06T05:41:04.623Z,13.05
2018-05-06T05:42:04.550Z,13.07
2018-05-06T05:43:04.464Z,13.05
2018-05-06T05:44:04.389Z,13.19
2018-05-06T05:45:04.314Z,13.12
2018-05-06T05:46:04.224Z,13.28
2018-05-06T05:47:04.153Z,13.12
2018-05-06T05:48:04.073Z,13.23
2018-05-06T05:49:03.987Z,13.30
2018-05-06T05:50:03.919Z,13.23
2018-05-06T05:51:03.826Z,13.25
2018-05-06T05:52:03.753Z,13.32
2018-05-06T05:53:03.677Z,13.39
2018-05-06T05:54:03.589Z,13.38
2018-05-06T05:55:03.513Z,13.26
2018-05-06T05:56:03.425Z,13.32
2018-05-06T05:57:03.350Z,13.33
2018-05-06T05:58:03.277Z,13.30
2018-05-06T05:59:03.192Z,13.39
2018-05-06T06:00:03.115Z,13.33
2018-05-06T06:01:03.041Z,13.45
2018-05-06T06:02:02.950Z,13.48
2018-05-06T06:03:02.876Z,13.52
2018-05-06T06:04:02.795Z,13.60
2018-05-06T06:05:02.715Z,13.70
2018-05-06T06:06:02.641Z,13.73
2018-05-06T06:07:02.567Z,13.79
2018-05-06T06:08:02.478Z,13.79
2018-05-06T06:09:02.403Z,13.78
2018-05-06T06:10:02.316Z,13.75
2018-05-06T06:11:02.242Z,13.63
2018-05-06T06:12:02.157Z,13.62
2018-05-06T06:13:02.081Z,13.57
2018-05-06T06:14:02.004Z,13.64
2018-05-06T06:15:01.916Z,13.60
2018-05-06T06:16:01.840Z,13.60
2018-05-06T06:17:01.765Z,13.69
2018-05-06T06:18:01.692Z,13.75
2018-05-06T06:19:01.604Z,13.87
2018-05-06T06:20:01.529Z,13.87
2018-05-06T06:21:01.454Z,13.95
2018-05-06T06:22:01.366Z,13.95
2018-05-06T06:23:01.291Z,14.04
2018-05-06T06:24:01.202Z,14.07
2018-05-06T06:25:01.128Z,14.15
2018-05-06T06:26:01.053Z,14.12
2018-05-06T06:27:00.966Z,14.12
2018-05-06T06:28:00.891Z,14.12
2018-05-06T06:29:00.804Z,14.09
2018-05-06T06:30:00.731Z,14.25
2018-05-06T06:31:00.655Z,14.28
2018-05-06T06:32:00.569Z,14.24
2018-05-06T06:33:00.515Z,14.36
2018-05-06T06:34:00.417Z,14.36
2018-05-06T06:35:00.328Z,14.40
2018-05-06T06:36:00.253Z,14.46
2018-05-06T06:37:00.184Z,14.54
2018-05-06T06:38:00.097Z,14.62
2018-05-06T06:39:00.026Z,14.65
2018-05-06T06:39:59.945Z,14.70
2018-05-06T06:40:59.856Z,14.62
2018-05-06T06:41:59.783Z,14.78
2018-05-06T06:42:59.706Z,14.89
2018-05-06T06:43:59.621Z,14.92
2018-05-06T06:44:59.546Z,14.84
2018-05-06T06:45:59.468Z,14.86
2018-05-06T06:46:59.385Z,14.88
2018-05-06T06:47:59.357Z,14.88
2018-05-06T06:48:59.230Z,15.03
2018-05-06T06:49:59.148Z,15.09
2018-05-06T06:50:59.076Z,15.13
2018-05-06T06:51:58.996Z,15.23
2018-05-06T06:52:58.909Z,15.20
2018-05-06T06:53:58.844Z,15.21
2018-05-06T06:54:58.759Z,15.34
2018-05-06T06:55:58.685Z,15.27
2018-05-06T06:56:58.594Z,15.21
2018-05-06T06:57:58.524Z,15.35
2018-05-06T06:58:58.445Z,15.36
2018-05-06T06:59:58.357Z,15.47
2018-05-06T07:00:58.282Z,15.67
2018-05-06T07:01:58.209Z,15.65
2018-05-06T07:02:58.134Z,15.72
2018-05-06T07:03:58.050Z,15.84
2018-05-06T07:04:57.974Z,15.90
2018-05-06T07:05:57.917Z,15.96
2018-05-06T07:06:57.821Z,15.92
2018-05-06T07:07:57.732Z,16.04
2018-05-06T07:08:57.674Z,16.02
2018-05-06T07:09:57.585Z,16.14
2018-05-06T07:10:57.523Z,16.09
2018-05-06T07:11:57.423Z,16.28
2018-05-06T07:12:57.347Z,16.24
2018-05-06T07:13:57.273Z,16.34
2018-05-06T07:14:57.187Z,16.20
2018-05-06T07:15:59.737Z,16.35
2018-05-06T07:16:57.035Z,16.28
2018-05-06T07:17:56.972Z,16.63
2018-05-06T07:18:56.887Z,16.75
2018-05-06T07:19:56.796Z,17.15
2018-05-06T07:21:38.846Z,17.81
2018-05-06T07:22:38.759Z,18.37
2018-05-06T07:23:38.683Z,18.80
2018-05-06T07:24:38.612Z,19.08
2018-05-06T07:25:38.536Z,19.21
2018-05-06T07:26:38.461Z,19.36
2018-05-06T07:27:38.375Z,19.55
2018-05-06T07:28:38.301Z,19.66
2018-05-06T07:29:38.224Z,20.13
2018-05-06T07:30:38.153Z,20.13
2018-05-06T07:31:38.075Z,20.36
2018-05-06T07:32:38.000Z,20.31
2018-05-06T07:33:37.926Z,20.43
2018-05-06T07:34:37.837Z,20.48
2018-05-06T07:35:37.763Z,20.73
2018-05-06T07:36:37.701Z,20.36
2018-05-06T07:37:37.625Z,20.92
2018-05-06T07:38:37.538Z,21.46
2018-05-06T07:39:37.463Z,21.98
2018-05-06T07:40:37.386Z,21.82
2018-05-06T07:41:37.347Z,21.99
2018-05-06T07:42:37.236Z,21.91
2018-05-06T07:43:37.177Z,22.46
2018-05-06T07:44:37.101Z,22.67
2018-05-06T07:45:37.027Z,23.19
2018-05-06T07:46:36.955Z,22.98
2018-05-06T07:47:36.878Z,23.20
2018-05-06T07:48:36.800Z,23.33
2018-05-06T07:49:36.726Z,22.39
2018-05-06T07:50:36.665Z,22.37
2018-05-06T07:51:36.587Z,22.98
2018-05-06T07:52:36.513Z,21.82
2018-05-06T07:53:36.438Z,22.07
2018-05-06T07:54:36.376Z,22.61
2018-05-06T07:55:36.301Z,22.70
2018-05-06T07:56:36.228Z,22.86
2018-05-06T07:57:36.165Z,22.15
2018-05-06T07:58:36.090Z,22.51
2018-05-06T07:59:36.017Z,22.57
2018-05-06T08:00:35.942Z,23.05
2018-05-06T08:01:35.877Z,23.23
2018-05-06T08:02:35.801Z,23.36
2018-05-06T08:03:35.738Z,23.35
2018-05-06T08:04:35.667Z,23.17
2018-05-06T08:05:35.590Z,23.68
2018-05-06T08:06:35.529Z,23.35
2018-05-06T08:07:35.457Z,23.39
2018-05-06T08:08:35.391Z,23.84
2018-05-06T08:09:35.330Z,22.97
2018-05-06T08:10:35.246Z,23.35
2018-05-06T08:11:35.180Z,23.61
2018-05-06T08:12:35.103Z,23.23
2018-05-06T08:13:35.040Z,22.75
2018-05-06T08:14:34.965Z,22.91
2018-05-06T08:15:34.904Z,23.19
2018-05-06T08:16:34.833Z,22.88
2018-05-06T08:17:34.767Z,23.54
2018-05-06T08:18:34.692Z,23.50
2018-05-06T08:19:34.631Z,23.87
2018-05-06T08:20:34.565Z,24.60
2018-05-06T08:21:34.490Z,25.35
2018-05-06T08:22:34.417Z,25.94
2018-05-06T08:23:34.353Z,25.27
2018-05-06T08:24:34.294Z,25.25
2018-05-06T08:25:34.217Z,24.99
2018-05-06T08:26:34.157Z,24.83
2018-05-06T08:27:34.081Z,24.99
2018-05-06T08:28:34.016Z,24.88
2018-05-06T08:29:33.955Z,24.87
2018-05-06T08:30:33.879Z,24.83
2018-05-06T08:31:33.827Z,24.61
2018-05-06T08:32:33.757Z,24.10
2018-05-06T08:33:33.684Z,23.63
2018-05-06T08:34:33.619Z,23.58
2018-05-06T08:35:33.546Z,23.54
2018-05-06T08:36:33.481Z,23.35
2018-05-06T08:37:33.491Z,23.53
2018-05-06T08:38:33.343Z,23.50
2018-05-06T08:39:33.281Z,23.66
2018-05-06T08:40:33.217Z,23.25
2018-05-06T08:41:33.145Z,22.51
2018-05-06T08:42:33.084Z,22.46
2018-05-06T08:43:33.018Z,23.04
2018-05-06T08:44:32.946Z,24.10
2018-05-06T08:45:32.883Z,24.83
2018-05-06T08:46:32.826Z,24.78
2018-05-06T08:47:32.753Z,24.32
2018-05-06T08:48:32.682Z,24.76
2018-05-06T08:49:32.619Z,24.69
2018-05-06T08:50:32.545Z,24.69
2018-05-06T08:51:32.560Z,23.95
2018-05-06T08:52:32.421Z,24.27
2018-05-06T08:53:32.361Z,24.84
2018-05-06T08:54:32.289Z,25.39
2018-05-06T08:55:32.222Z,26.05
2018-05-06T08:56:32.160Z,25.82
2018-05-06T08:57:32.085Z,25.70
2018-05-06T08:58:32.022Z,25.15
2018-05-06T08:59:32.043Z,25.70
2018-05-06T09:00:31.895Z,25.99
2018-05-06T09:01:31.820Z,25.94
2018-05-06T09:02:31.762Z,25.82
2018-05-06T09:03:31.695Z,25.57
2018-05-06T09:04:31.635Z,25.85
2018-05-06T09:05:31.563Z,25.90
2018-05-06T09:06:31.498Z,25.06
2018-05-06T09:07:31.437Z,24.52
2018-05-06T09:08:31.371Z,24.35
2018-05-06T09:09:31.309Z,24.00
2018-05-06T09:10:31.234Z,24.08
2018-05-06T09:11:31.174Z,24.62
2018-05-06T09:12:31.109Z,25.30
2018-05-06T09:13:31.047Z,24.81
2018-05-06T09:14:30.986Z,25.45
2018-05-06T09:15:30.926Z,25.97
2018-05-06T09:16:30.849Z,26.06
2018-05-06T09:17:30.789Z,26.54
2018-05-06T09:18:30.724Z,26.57
2018-05-06T09:19:30.662Z,27.04
2018-05-06T09:20:30.597Z,27.49
2018-05-06T09:21:30.523Z,27.29
2018-05-06T09:22:30.460Z,26.73
2018-05-06T09:23:30.398Z,26.91
2018-05-06T09:24:30.338Z,27.32
2018-05-06T09:25:30.345Z,26.65
2018-05-06T09:26:30.213Z,25.36
2018-05-06T09:27:30.151Z,24.78
2018-05-06T09:28:30.077Z,25.00
2018-05-06T09:29:30.014Z,24.77
2018-05-06T09:30:29.950Z,25.10
2018-05-06T09:31:29.889Z,24.76
2018-05-06T09:32:29.837Z,24.96
2018-05-06T09:33:29.762Z,24.83
2018-05-06T09:34:29.704Z,25.35
2018-05-06T09:35:29.624Z,25.85
2018-05-06T09:36:29.569Z,26.50
2018-05-06T09:37:29.501Z,26.70
2018-05-06T09:38:29.441Z,26.82
2018-05-06T09:39:29.376Z,26.80
2018-05-06T09:40:29.326Z,26.44
2018-05-06T09:41:29.238Z,25.25
2018-05-06T09:42:29.188Z,25.27
2018-05-06T09:43:29.116Z,25.50
2018-05-06T09:44:29.050Z,25.23
2018-05-06T09:45:28.988Z,25.10
2018-05-06T09:46:28.925Z,24.93
2018-05-06T09:47:28.851Z,24.91
2018-05-06T09:48:28.791Z,23.58
2018-05-06T09:49:28.727Z,23.32
2018-05-06T09:50:28.670Z,23.32
2018-05-06T09:51:28.591Z,23.09
2018-05-06T09:52:28.526Z,23.23
2018-05-06T09:53:28.464Z,23.27
2018-05-06T09:54:28.401Z,23.17
2018-05-06T09:55:28.327Z,22.73
2018-05-06T09:56:28.266Z,22.92
2018-05-06T09:57:28.203Z,22.62
2018-05-06T09:58:28.129Z,22.28
2018-05-06T09:59:28.071Z,22.09
2018-05-06T10:00:27.993Z,22.20
2018-05-06T10:01:27.929Z,22.27
2018-05-06T10:02:27.854Z,22.12
2018-05-06T10:03:27.792Z,22.07
2018-05-06T10:04:27.715Z,21.96
2018-05-06T10:05:27.653Z,22.05
2018-05-06T10:06:27.577Z,21.99
2018-05-06T10:07:27.515Z,21.56
2018-05-06T10:08:27.444Z,21.79
2018-05-06T10:09:27.379Z,21.96
2018-05-06T10:21:43.917Z,22.42
2018-05-06T10:22:41.217Z,22.39
2018-05-06T10:23:41.167Z,22.36
2018-05-06T10:24:41.081Z,22.14
2018-05-06T10:25:41.007Z,22.09
2018-05-06T10:26:40.931Z,21.92
2018-05-06T10:27:40.859Z,21.99
2018-05-06T10:28:40.794Z,21.75
2018-05-06T10:29:40.717Z,21.96
2018-05-06T10:30:40.643Z,21.99
2018-05-06T10:31:40.567Z,22.06
2018-05-06T10:32:40.507Z,22.17
2018-05-06T10:33:40.433Z,22.28
2018-05-06T10:34:40.357Z,22.05
2018-05-06T10:35:40.300Z,22.07
2018-05-06T10:36:40.207Z,22.06
2018-05-06T10:37:40.146Z,22.75
2018-05-06T10:38:40.070Z,23.53
2018-05-06T10:39:39.996Z,23.40
2018-05-06T10:40:39.919Z,23.79
2018-05-06T10:41:39.855Z,23.01
2018-05-06T10:42:39.780Z,23.04
2018-05-06T10:43:39.706Z,23.27
2018-05-06T10:44:39.634Z,23.02
2018-05-06T10:45:39.575Z,23.51
2018-05-06T10:46:39.496Z,24.08
2018-05-06T10:47:39.423Z,24.60
2018-05-06T10:48:39.357Z,24.93
2018-05-06T10:49:39.285Z,25.61
2018-05-06T10:50:39.220Z,26.13
2018-05-06T10:51:39.145Z,26.76
2018-05-06T10:52:39.082Z,26.89
2018-05-06T10:53:39.007Z,27.55
2018-05-06T10:54:38.945Z,26.57
2018-05-06T10:55:38.873Z,25.90
2018-05-06T10:56:38.813Z,26.12
2018-05-06T10:57:38.751Z,26.05
2018-05-06T10:58:38.676Z,26.10
2018-05-06T10:59:38.610Z,26.06
2018-05-06T11:00:38.546Z,25.91
2018-05-06T11:01:38.484Z,25.30
2018-05-06T11:02:38.412Z,25.00
2018-05-06T11:03:38.346Z,24.98
2018-05-06T11:04:38.286Z,25.15
2018-05-06T11:05:38.224Z,25.73
2018-05-06T11:06:38.160Z,25.99
2018-05-06T11:07:38.088Z,26.23
2018-05-06T11:08:38.025Z,25.69
2018-05-06T11:09:37.974Z,25.23
2018-05-06T11:10:37.900Z,25.05
2018-05-06T11:11:37.837Z,24.83
2018-05-06T11:12:37.772Z,24.96
2018-05-06T11:13:37.710Z,25.33
2018-05-06T11:14:37.636Z,25.55
2018-05-06T11:15:37.573Z,25.88
2018-05-06T11:16:37.512Z,25.58
2018-05-06T11:17:37.450Z,26.73
2018-05-06T11:18:37.392Z,27.17
2018-05-06T11:19:37.325Z,27.77
2018-05-06T11:20:37.270Z,26.25
2018-05-06T11:21:37.200Z,26.73
2018-05-06T11:22:37.199Z,27.60
2018-05-06T11:23:37.074Z,26.62
2018-05-06T11:24:37.025Z,25.98
2018-05-06T11:25:36.955Z,25.98
2018-05-06T11:26:36.887Z,25.64
2018-05-06T11:27:36.830Z,26.05
2018-05-06T11:28:36.761Z,25.77
2018-05-06T11:29:36.700Z,26.62
2018-05-06T11:30:36.631Z,27.37
2018-05-06T11:31:36.562Z,27.72
2018-05-06T11:32:36.501Z,27.90
2018-05-06T11:33:36.453Z,27.78
2018-05-06T11:34:36.376Z,27.57
2018-05-06T11:35:36.313Z,27.54
2018-05-06T11:36:36.251Z,27.85
2018-05-06T11:37:36.188Z,28.03
2018-05-06T11:38:36.124Z,28.22
2018-05-06T11:39:36.065Z,27.29
2018-05-06T11:40:36.001Z,26.54
2018-05-06T11:41:35.950Z,26.21
2018-05-06T11:42:35.876Z,27.10
2018-05-06T11:43:35.816Z,27.75
2018-05-06T11:44:35.753Z,26.18
2018-05-06T11:45:35.689Z,26.35
2018-05-06T11:46:35.627Z,25.77
2018-05-06T11:47:35.569Z,25.00
2018-05-06T11:48:35.500Z,24.88
2018-05-06T11:49:35.437Z,25.00
2018-05-06T11:50:35.382Z,25.58
2018-05-06T11:51:35.314Z,26.32
2018-05-06T11:52:35.253Z,26.85
2018-05-06T11:53:35.203Z,26.70
2018-05-06T11:54:35.135Z,27.00
2018-05-06T11:59:05.714Z,27.96
2018-05-06T12:00:05.653Z,26.92
2018-05-06T12:02:29.854Z,28.51
2018-05-06T12:03:29.789Z,28.54
2018-05-06T12:04:29.728Z,28.24
2018-05-06T12:05:29.667Z,29.00
2018-05-06T12:06:29.605Z,28.98
2018-05-06T12:07:29.541Z,29.08
2018-05-06T12:08:29.479Z,28.67
2018-05-06T12:09:29.428Z,28.41
2018-05-06T12:10:29.353Z,27.37
2018-05-06T12:11:29.290Z,27.62
2018-05-06T12:12:29.229Z,27.36
2018-05-06T12:13:29.167Z,27.07
2018-05-06T12:14:29.105Z,27.77
2018-05-06T12:15:29.043Z,28.18
2018-05-06T12:16:28.981Z,28.96
2018-05-06T12:17:28.917Z,29.18
2018-05-06T12:18:28.856Z,28.18
2018-05-06T12:19:28.792Z,28.44
2018-05-06T12:20:28.733Z,28.59
2018-05-06T12:21:28.667Z,28.88
2018-05-06T12:22:28.605Z,28.54
2018-05-06T12:23:28.541Z,28.68
2018-05-06T12:24:28.490Z,28.41
2018-05-06T12:25:28.419Z,27.97
2018-05-06T12:26:28.360Z,28.21
2018-05-06T12:27:28.300Z,27.81
2018-05-06T12:28:28.232Z,28.03
2018-05-06T12:29:28.180Z,28.66
2018-05-06T12:30:28.115Z,28.61
2018-05-06T12:31:28.043Z,27.28
2018-05-06T12:32:27.980Z,27.47
2018-05-06T12:33:27.919Z,26.63
2018-05-06T12:34:27.860Z,26.37
2018-05-06T12:35:27.793Z,26.84
2018-05-06T12:36:27.731Z,26.62
2018-05-06T12:37:27.670Z,26.47
2018-05-06T12:38:27.609Z,26.13
2018-05-06T12:39:27.545Z,26.25
2018-05-06T12:40:27.484Z,26.75
2018-05-06T12:41:27.419Z,26.95
2018-05-06T12:42:27.357Z,26.85
2018-05-06T12:43:27.396Z,26.84
2018-05-06T12:44:27.234Z,26.77
2018-05-06T12:45:27.184Z,27.66
2018-05-06T12:46:27.114Z,26.94
2018-05-06T12:47:27.048Z,27.04
2018-05-06T12:48:26.973Z,26.97
2018-05-06T12:49:26.995Z,27.07
2018-05-06T12:50:26.848Z,27.67
2018-05-06T12:51:26.785Z,27.41
2018-05-06T12:52:26.723Z,28.14
2018-05-06T12:53:26.659Z,28.36
2018-05-06T12:54:26.595Z,29.00
2018-05-06T12:55:26.534Z,28.49
2018-05-06T12:56:26.483Z,28.27
2018-05-06T12:57:26.414Z,27.94
2018-05-06T12:58:26.348Z,27.25
2018-05-06T12:59:26.286Z,27.92
2018-05-06T13:00:26.223Z,28.02
2018-05-06T13:01:26.159Z,28.56
2018-05-06T13:02:26.133Z,28.12
2018-05-06T13:03:26.037Z,27.19
2018-05-06T13:04:25.987Z,27.40
2018-05-06T13:05:25.916Z,27.96
2018-05-06T13:06:25.849Z,28.71
2018-05-06T13:07:25.789Z,28.71
2018-05-06T13:08:25.724Z,28.55